Time;durP1;ratioP1;P1;durP2;ratioP2;P2;SDS_P1;SDS_P2;PMS_P1;PMS_P2;Temp;Humidity;BMP_temperature;BMP_pressure;BME280_temperature;BME280_humidity;BME280_pressure;Samples;Min_cycle;Max_cycle;Signal;HPM_P1;HPM_P2
2021/08/09 00:02:22;;;;;;;4.55;1.65;;;16.10;99.90;;;;;;5040061;28;20210;-70
2021/08/09 00:04:49;;;;;;;2.20;1.88;;;16.20;99.90;;;;;;5039998;28;20694;-70
2021/08/09 00:07:16;;;;;;;1.85;1.60;;;16.20;99.90;;;;;;5040016;28;20626;-69
2021/08/09 00:09:44;;;;;;;2.03;1.70;;;16.30;99.90;;;;;;5039645;28;20227;-69
2021/08/09 00:12:11;;;;;;;2.00;1.77;;;16.20;99.90;;;;;;5040015;28;20310;-69
2021/08/09 00:14:39;;;;;;;2.35;2.15;;;16.20;99.90;;;;;;5039724;28;20280;-70
2021/08/09 00:17:06;;;;;;;2.47;2.28;;;16.20;99.90;;;;;;5039581;28;20562;-70
2021/08/09 00:19:34;;;;;;;2.33;2.13;;;16.20;99.90;;;;;;5039563;28;20266;-70
2021/08/09 00:22:00;;;;;;;2.20;2.00;;;16.20;99.90;;;;;;5039878;28;20607;-70
2021/08/09 00:24:28;;;;;;;2.20;1.98;;;16.20;99.90;;;;;;5039831;28;20207;-69
2021/08/09 00:26:56;;;;;;;2.00;1.83;;;16.20;99.90;;;;;;5039434;28;20713;-70
2021/08/09 00:29:24;;;;;;;2.72;2.30;;;16.30;99.90;;;;;;5039509;28;20236;-69
2021/08/09 00:31:50;;;;;;;1.80;1.70;;;16.30;99.90;;;;;;5039816;28;20597;-70
2021/08/09 00:34:19;;;;;;;1.95;1.75;;;16.30;99.90;;;;;;5039899;28;20211;-69
2021/08/09 00:36:46;;;;;;;3.05;2.35;;;16.40;99.90;;;;;;5039521;28;20233;-70
2021/08/09 00:39:13;;;;;;;2.13;2.00;;;16.40;99.90;;;;;;5039503;28;20233;-69
2021/08/09 00:41:40;;;;;;;2.40;2.17;;;16.30;99.90;;;;;;5039728;28;20253;-70
2021/08/09 00:44:08;;;;;;;2.30;2.00;;;16.30;99.90;;;;;;5039658;28;20203;-70
2021/08/09 00:46:35;;;;;;;2.10;1.90;;;16.30;99.90;;;;;;5039409;28;20313;-70
2021/08/09 00:49:02;;;;;;;2.30;2.10;;;16.30;99.90;;;;;;5039605;28;20316;-70
2021/08/09 00:51:28;;;;;;;2.40;1.83;;;16.30;99.90;;;;;;5039645;28;20295;-70
2021/08/09 00:53:55;;;;;;;1.98;1.73;;;16.20;99.90;;;;;;5039675;28;20207;-70
2021/08/09 00:56:22;;;;;;;2.90;1.75;;;16.20;99.90;;;;;;5039197;28;20681;-70
2021/08/09 00:58:49;;;;;;;1.85;1.75;;;16.20;99.90;;;;;;5039443;28;20230;-70
2021/08/09 01:01:17;;;;;;;2.50;1.92;;;16.10;99.90;;;;;;5039319;28;20684;-69
2021/08/09 01:03:44;;;;;;;2.20;1.95;;;16.00;99.90;;;;;;5039547;28;20207;-69
2021/08/09 01:06:11;;;;;;;2.08;1.88;;;16.00;99.90;;;;;;5039124;28;20206;-70
2021/08/09 01:08:51;;;;;;;2.22;1.60;;;15.90;99.90;;;;;;5039024;28;20223;-70
2021/08/09 01:11:27;;;;;;;2.55;2.35;;;15.70;99.90;;;;;;5036215;28;20211;-69
2021/08/09 01:13:56;;;;;;;1.92;1.70;;;15.60;99.90;;;;;;5036375;28;20249;-69
2021/08/09 01:16:29;;;;;;;4.15;2.20;;;15.50;99.90;;;;;;5035954;28;20300;-70
2021/08/09 01:19:01;;;;;;;3.58;2.30;;;15.50;99.90;;;;;;5036341;28;20767;-69
2021/08/09 01:21:32;;;;;;;3.05;2.00;;;15.40;99.90;;;;;;5036324;28;20612;-70
2021/08/09 01:24:13;;;;;;;2.60;1.88;;;15.50;99.90;;;;;;5036032;28;20203;-69
2021/08/09 01:26:43;;;;;;;2.33;2.13;;;15.50;99.90;;;;;;5035986;28;20210;-69
2021/08/09 01:29:13;;;;;;;3.45;2.28;;;15.40;99.90;;;;;;5036195;28;20235;-69
2021/08/09 01:31:44;;;;;;;2.50;1.50;;;15.20;99.90;;;;;;5036091;28;20213;-69
2021/08/09 01:34:12;;;;;;;2.28;1.80;;;15.10;99.90;;;;;;5036263;28;20217;-69
2021/08/09 01:36:42;;;;;;;2.13;1.92;;;15.20;99.90;;;;;;5035772;28;20568;-69
2021/08/09 01:39:11;;;;;;;1.88;1.77;;;15.10;99.90;;;;;;5036062;28;20713;-69
2021/08/09 01:41:39;;;;;;;1.73;1.60;;;15.10;99.90;;;;;;5035825;28;20599;-70
2021/08/09 01:44:07;;;;;;;2.92;2.40;;;15.10;99.90;;;;;;5035759;28;20202;-69
2021/08/09 01:46:37;;;;;;;2.55;2.20;;;15.30;99.90;;;;;;5035650;28;20207;-70
2021/08/09 01:49:06;;;;;;;2.67;1.88;;;15.30;99.90;;;;;;5035632;28;20221;-70
2021/08/09 01:51:33;;;;;;;2.03;1.83;;;15.30;99.90;;;;;;5036301;28;20236;-69
2021/08/09 01:54:00;;;;;;;1.80;1.70;;;15.30;99.90;;;;;;5035564;28;20205;-69
2021/08/09 01:56:28;;;;;;;5.60;1.80;;;15.30;99.90;;;;;;5035139;28;20210;-69
2021/08/09 01:58:54;;;;;;;1.95;1.75;;;15.30;99.90;;;;;;5035647;28;20234;-69
2021/08/09 02:01:22;;;;;;;2.65;1.90;;;15.40;99.90;;;;;;5035504;28;20293;-69
2021/08/09 02:03:50;;;;;;;2.35;2.00;;;15.40;99.90;;;;;;5035592;28;20213;-70
2021/08/09 02:06:18;;;;;;;2.67;1.60;;;15.30;99.90;;;;;;5035049;28;20231;-69
2021/08/09 02:08:45;;;;;;;1.80;1.70;;;15.30;99.90;;;;;;5035133;28;20222;-70
2021/08/09 02:11:18;;;;;;;4.13;2.30;;;15.20;99.90;;;;;;5035029;28;20297;-69
2021/08/09 02:13:50;;;;;;;1.90;1.80;;;15.30;99.90;;;;;;5035269;28;20209;-69
2021/08/09 02:16:20;;;;;;;2.13;1.83;;;15.20;99.90;;;;;;5034916;28;20213;-69
2021/08/09 02:18:53;;;;;;;1.73;1.40;;;15.20;99.90;;;;;;5034985;28;20692;-69
2021/08/09 02:21:28;;;;;;;1.80;1.70;;;15.20;99.90;;;;;;5034672;28;20194;-69
2021/08/09 02:24:00;;;;;;;2.00;1.70;;;15.20;99.90;;;;;;5035052;28;20268;-69
2021/08/09 02:26:29;;;;;;;1.60;1.50;;;15.30;99.90;;;;;;5034834;28;20206;-69
2021/08/09 02:29:05;;;;;;;3.70;2.13;;;15.40;99.90;;;;;;5034734;28;20317;-69
2021/08/09 02:31:37;;;;;;;1.90;1.70;;;15.30;99.90;;;;;;5034962;28;20217;-69
2021/08/09 02:34:06;;;;;;;1.90;1.80;;;15.30;99.90;;;;;;5034840;28;20213;-69
2021/08/09 02:36:33;;;;;;;2.10;1.90;;;15.30;99.90;;;;;;5034324;28;20690;-69
2021/08/09 02:39:01;;;;;;;2.08;1.73;;;15.20;99.90;;;;;;5034343;28;20688;-69
2021/08/09 02:41:29;;;;;;;2.88;1.90;;;15.20;99.90;;;;;;5034760;28;20205;-69
2021/08/09 02:43:56;;;;;;;2.55;2.35;;;15.10;99.90;;;;;;5034595;28;20210;-69
2021/08/09 02:46:24;;;;;;;3.95;2.25;;;15.10;99.90;;;;;;5034520;28;20209;-69
2021/08/09 02:48:51;;;;;;;2.13;1.92;;;15.10;99.90;;;;;;5034579;28;20321;-70
2021/08/09 02:51:20;;;;;;;4.45;2.15;;;15.00;99.90;;;;;;5034530;28;20292;-69
2021/08/09 02:53:49;;;;;;;2.30;1.88;;;14.90;99.90;;;;;;5034471;28;20210;-69
2021/08/09 02:56:17;;;;;;;1.77;1.67;;;14.90;99.90;;;;;;5034106;28;20211;-69
2021/08/09 02:58:44;;;;;;;2.10;1.90;;;15.00;99.90;;;;;;5034143;28;20252;-69
2021/08/09 03:01:14;;;;;;;1.70;1.60;;;15.00;99.90;;;;;;5034419;28;20291;-69
2021/08/09 03:03:43;;;;;;;2.42;2.10;;;15.00;99.90;;;;;;5034288;28;20233;-69
2021/08/09 03:06:12;;;;;;;2.42;2.22;;;15.00;99.90;;;;;;5034113;28;20640;-69
2021/08/09 03:08:41;;;;;;;3.65;1.70;;;15.00;99.90;;;;;;5034113;28;20221;-69
2021/08/09 03:11:09;;;;;;;2.58;1.90;;;15.00;99.90;;;;;;5033853;28;20201;-69
2021/08/09 03:13:36;;;;;;;1.95;1.60;;;15.00;99.90;;;;;;5033906;28;20677;-70
2021/08/09 03:16:06;;;;;;;2.90;2.00;;;15.00;99.90;;;;;;5033585;28;20221;-69
2021/08/09 03:18:34;;;;;;;2.22;1.60;;;15.00;99.90;;;;;;5033961;28;20454;-69
2021/08/09 03:21:01;;;;;;;1.52;1.42;;;15.00;99.90;;;;;;5034352;28;20210;-69
2021/08/09 03:23:28;;;;;;;3.47;1.50;;;14.90;99.90;;;;;;5033976;28;20621;-69
2021/08/09 03:25:56;;;;;;;1.95;1.70;;;14.80;99.90;;;;;;5033676;28;20299;-70
2021/08/09 03:28:23;;;;;;;1.70;1.60;;;14.60;99.90;;;;;;5033774;28;20733;-69
2021/08/09 03:30:50;;;;;;;1.98;1.50;;;14.70;99.90;;;;;;5033888;28;20208;-70
2021/08/09 03:33:16;;;;;;;1.67;1.58;;;14.60;99.90;;;;;;5033338;28;20574;-69
2021/08/09 03:35:43;;;;;;;1.70;1.60;;;14.50;99.90;;;;;;5033541;28;20214;-69
2021/08/09 03:38:10;;;;;;;2.33;2.00;;;14.50;99.90;;;;;;5033546;28;20718;-70
2021/08/09 03:40:37;;;;;;;2.20;2.00;;;14.40;99.90;;;;;;5033738;28;20295;-69
2021/08/09 03:43:06;;;;;;;2.33;1.60;;;14.30;99.90;;;;;;5033759;28;20209;-70
2021/08/09 03:45:33;;;;;;;2.08;1.75;;;14.40;99.90;;;;;;5033234;28;20754;-69
2021/08/09 03:48:00;;;;;;;2.55;2.17;;;14.50;99.90;;;;;;5033406;28;20750;-69
2021/08/09 03:50:27;;;;;;;2.33;1.63;;;14.50;99.90;;;;;;5033622;28;20232;-69
2021/08/09 03:52:56;;;;;;;1.95;1.35;;;14.50;99.90;;;;;;5033528;28;20208;-69
2021/08/09 03:55:23;;;;;;;2.40;1.90;;;14.50;99.90;;;;;;5033100;28;20209;-69
2021/08/09 03:57:50;;;;;;;1.90;1.80;;;14.40;99.90;;;;;;5033259;28;20753;-69
2021/08/09 04:00:18;;;;;;;4.07;1.88;;;14.50;99.90;;;;;;5033487;28;20251;-69
2021/08/09 04:02:45;;;;;;;2.40;1.58;;;14.50;99.90;;;;;;5033425;28;20626;-69
2021/08/09 04:05:13;;;;;;;1.98;1.83;;;14.60;99.90;;;;;;5033232;28;20314;-70
2021/08/09 04:07:39;;;;;;;2.08;1.67;;;14.60;99.90;;;;;;5033129;28;20210;-69
2021/08/09 04:10:07;;;;;;;2.00;1.80;;;14.70;99.90;;;;;;5033397;28;20582;-69
2021/08/09 04:12:34;;;;;;;1.52;1.40;;;14.70;99.90;;;;;;5034141;28;20210;-69
2021/08/09 04:15:01;;;;;;;2.20;1.70;;;14.80;99.90;;;;;;5033192;28;20211;-69
2021/08/09 04:17:30;;;;;;;3.35;1.88;;;14.80;99.90;;;;;;5033133;28;20245;-69
2021/08/09 04:19:56;;;;;;;1.67;1.58;;;14.90;99.90;;;;;;5032908;28;20577;-69
2021/08/09 04:22:23;;;;;;;2.90;1.75;;;14.80;99.90;;;;;;5033293;28;20236;-69
2021/08/09 04:24:50;;;;;;;2.40;1.80;;;14.50;99.90;;;;;;5033142;28;20296;-69
2021/08/09 04:27:17;;;;;;;4.20;2.00;;;14.20;99.90;;;;;;5033212;28;20726;-69
2021/08/09 04:29:43;;;;;;;1.88;1.65;;;14.20;99.90;;;;;;5033199;28;20255;-69
2021/08/09 04:32:15;;;;;;;2.00;1.70;;;14.20;99.90;;;;;;5033219;28;20208;-69
2021/08/09 04:34:43;;;;;;;2.17;1.98;;;14.20;99.90;;;;;;5033184;28;20623;-70
2021/08/09 04:37:10;;;;;;;3.05;2.30;;;14.20;99.90;;;;;;5033192;28;20211;-69
2021/08/09 04:39:37;;;;;;;2.22;2.03;;;14.10;99.90;;;;;;5033123;28;20614;-69
2021/08/09 04:42:04;;;;;;;2.85;2.35;;;14.10;99.90;;;;;;5033260;28;20295;-69
2021/08/09 04:44:31;;;;;;;2.80;2.28;;;13.90;99.90;;;;;;5033617;28;20215;-69
2021/08/09 04:46:58;;;;;;;1.73;1.63;;;13.90;99.90;;;;;;5036616;28;20290;-69
2021/08/09 04:49:25;;;;;;;2.03;1.83;;;13.90;99.90;;;;;;5036513;28;20593;-69
2021/08/09 04:51:54;;;;;;;3.35;2.65;;;14.00;99.90;;;;;;5036838;28;20201;-69
2021/08/09 04:54:21;;;;;;;2.20;2.00;;;14.00;99.90;;;;;;5036706;28;20207;-69
2021/08/09 04:56:47;;;;;;;1.80;1.70;;;14.00;99.90;;;;;;5036385;28;20204;-69
2021/08/09 04:59:14;;;;;;;1.80;1.70;;;13.90;99.90;;;;;;5036200;28;20314;-69
2021/08/09 05:01:41;;;;;;;2.25;1.95;;;14.00;99.90;;;;;;5036548;28;20294;-69
2021/08/09 05:04:08;;;;;;;2.75;2.00;;;13.90;99.90;;;;;;5036537;28;20204;-69
2021/08/09 05:06:34;;;;;;;2.03;1.80;;;14.10;99.90;;;;;;5036117;28;20738;-69
2021/08/09 05:09:03;;;;;;;2.15;1.85;;;14.10;99.90;;;;;;5036238;28;20251;-69
2021/08/09 05:11:30;;;;;;;2.10;1.83;;;14.00;99.90;;;;;;5036367;28;20331;-70
2021/08/09 05:13:57;;;;;;;3.10;2.00;;;14.00;99.90;;;;;;5036344;28;20570;-70
2021/08/09 05:16:24;;;;;;;2.45;2.25;;;14.10;99.90;;;;;;5035933;28;20216;-70
2021/08/09 05:18:52;;;;;;;2.17;1.98;;;14.10;99.90;;;;;;5036177;28;20235;-69
2021/08/09 05:21:20;;;;;;;2.50;2.22;;;14.10;99.90;;;;;;5036144;28;20220;-69
2021/08/09 05:23:47;;;;;;;2.42;2.22;;;14.10;99.90;;;;;;5036031;28;20731;-69
2021/08/09 05:26:17;;;;;;;2.40;2.13;;;14.00;99.90;;;;;;5035783;28;20215;-70
2021/08/09 05:28:43;;;;;;;5.00;2.63;;;14.00;99.90;;;;;;5036031;28;20234;-70
2021/08/09 05:31:10;;;;;;;2.28;2.00;;;13.90;99.90;;;;;;5036039;28;20210;-69
2021/08/09 05:33:38;;;;;;;2.88;2.00;;;13.90;99.90;;;;;;5035789;28;20670;-70
2021/08/09 05:36:05;;;;;;;2.90;2.35;;;14.00;99.90;;;;;;5035639;28;20299;-70
2021/08/09 05:38:32;;;;;;;3.45;2.63;;;14.10;99.90;;;;;;5035687;28;20228;-70
2021/08/09 05:40:59;;;;;;;2.55;2.35;;;14.00;99.90;;;;;;5035922;28;20204;-70
2021/08/09 05:43:27;;;;;;;4.20;3.20;;;14.10;99.90;;;;;;5035764;28;20570;-70
2021/08/09 05:45:54;;;;;;;3.60;2.30;;;14.10;99.90;;;;;;5035615;28;20201;-70
2021/08/09 05:48:21;;;;;;;2.83;2.33;;;14.20;99.90;;;;;;5035610;28;20251;-70
2021/08/09 05:50:48;;;;;;;3.63;2.45;;;14.30;99.90;;;;;;5035458;28;20710;-69
2021/08/09 05:53:15;;;;;;;3.22;2.65;;;14.30;99.90;;;;;;5035693;28;20227;-70
2021/08/09 05:55:41;;;;;;;2.25;2.10;;;14.40;99.90;;;;;;5034736;28;20210;-70
2021/08/09 05:58:08;;;;;;;3.30;3.00;;;14.40;99.90;;;;;;5035406;28;20598;-70
2021/08/09 06:00:37;;;;;;;2.65;2.35;;;14.50;99.90;;;;;;5035254;28;20212;-69
2021/08/09 06:03:04;;;;;;;4.95;2.50;;;14.60;99.90;;;;;;5035329;28;20304;-70
2021/08/09 06:05:31;;;;;;;2.70;2.30;;;14.70;99.90;;;;;;5035067;28;20221;-70
2021/08/09 06:07:57;;;;;;;2.90;2.33;;;14.70;99.90;;;;;;5035335;28;20206;-70
2021/08/09 06:10:24;;;;;;;2.47;2.28;;;14.80;99.90;;;;;;5035274;28;20288;-70
2021/08/09 06:12:51;;;;;;;2.80;2.60;;;15.00;99.90;;;;;;5035276;28;20618;-70
2021/08/09 06:15:18;;;;;;;3.00;2.40;;;15.10;99.90;;;;;;5035309;28;20296;-70
2021/08/09 06:17:46;;;;;;;5.07;2.95;;;15.10;99.90;;;;;;5034802;28;20308;-69
2021/08/09 06:20:14;;;;;;;2.75;2.45;;;15.20;99.90;;;;;;5035076;28;20325;-69
2021/08/09 06:22:40;;;;;;;2.78;2.58;;;15.30;99.90;;;;;;5034769;28;20314;-70
2021/08/09 06:25:08;;;;;;;3.25;2.35;;;15.30;99.90;;;;;;5035122;28;20202;-70
2021/08/09 06:27:35;;;;;;;3.20;2.33;;;15.30;99.90;;;;;;5035201;28;20202;-69
2021/08/09 06:30:02;;;;;;;2.40;2.20;;;15.40;99.90;;;;;;5034670;28;20792;-70
2021/08/09 06:32:29;;;;;;;3.75;2.45;;;15.30;99.90;;;;;;5034921;28;20228;-70
2021/08/09 06:34:57;;;;;;;2.38;2.17;;;15.20;99.90;;;;;;5034692;28;20299;-70
2021/08/09 06:37:24;;;;;;;3.40;2.95;;;15.20;99.90;;;;;;5034762;28;20315;-70
2021/08/09 06:39:51;;;;;;;3.95;3.03;;;15.20;99.90;;;;;;5034475;28;20227;-70
2021/08/09 06:42:19;;;;;;;3.70;2.60;;;15.30;99.90;;;;;;5034763;28;20677;-70
2021/08/09 06:44:45;;;;;;;4.38;3.15;;;15.40;99.90;;;;;;5034550;28;20610;-70
2021/08/09 06:47:12;;;;;;;2.75;2.22;;;15.60;99.90;;;;;;5034640;28;20601;-70
2021/08/09 06:49:40;;;;;;;2.58;2.25;;;15.70;99.90;;;;;;5034246;28;20314;-70
2021/08/09 06:52:08;;;;;;;2.63;2.10;;;15.80;99.90;;;;;;5034542;28;20204;-70
2021/08/09 06:54:34;;;;;;;2.17;1.90;;;15.90;99.90;;;;;;5035121;28;20595;-69
2021/08/09 06:57:01;;;;;;;2.22;1.98;;;16.00;99.90;;;;;;5034275;28;20207;-70
2021/08/09 06:59:28;;;;;;;1.92;1.75;;;16.00;99.90;;;;;;5033992;28;20235;-70
2021/08/09 07:01:55;;;;;;;2.10;1.70;;;16.20;99.90;;;;;;5034364;28;20211;-70
2021/08/09 07:04:22;;;;;;;1.88;1.30;;;16.30;99.90;;;;;;5034252;28;20206;-70
2021/08/09 07:06:50;;;;;;;2.03;1.50;;;16.40;99.90;;;;;;5033424;28;20238;-69
2021/08/09 07:09:19;;;;;;;1.88;1.40;;;16.50;99.90;;;;;;5033893;28;20220;-69
2021/08/09 07:11:45;;;;;;;1.75;1.35;;;16.60;99.90;;;;;;5034161;28;20307;-70
2021/08/09 07:14:12;;;;;;;1.30;1.30;;;16.70;99.90;;;;;;5034015;28;20298;-70
2021/08/09 07:16:39;;;;;;;2.55;1.55;;;16.80;99.90;;;;;;5033701;28;20215;-70
2021/08/09 07:19:06;;;;;;;1.40;1.30;;;16.80;99.90;;;;;;5033783;28;20260;-70
2021/08/09 07:21:33;;;;;;;1.40;1.30;;;16.90;99.90;;;;;;5034197;28;20214;-70
2021/08/09 07:24:00;;;;;;;1.50;1.40;;;17.00;99.90;;;;;;5033992;28;20211;-70
2021/08/09 07:26:28;;;;;;;2.30;2.10;;;17.10;99.90;;;;;;5033625;28;20210;-70
2021/08/09 07:28:54;;;;;;;3.10;2.00;;;17.20;99.90;;;;;;5033856;28;20255;-69
2021/08/09 07:31:21;;;;;;;1.40;1.30;;;17.30;99.90;;;;;;5033926;28;20210;-70
2021/08/09 07:33:48;;;;;;;1.23;1.13;;;17.40;99.90;;;;;;5033723;28;20206;-70
2021/08/09 07:36:15;;;;;;;1.70;1.60;;;17.50;99.90;;;;;;5033602;28;20200;-70
2021/08/09 07:38:42;;;;;;;1.30;1.20;;;17.60;99.90;;;;;;5033710;28;20224;-70
2021/08/09 07:41:09;;;;;;;1.20;1.20;;;17.80;99.90;;;;;;5033815;28;20290;-70
2021/08/09 07:43:37;;;;;;;1.40;1.30;;;17.90;99.90;;;;;;5033681;28;20231;-70
2021/08/09 07:46:04;;;;;;;1.40;1.30;;;18.00;99.90;;;;;;5033325;28;20210;-70
2021/08/09 07:48:31;;;;;;;1.27;1.17;;;18.10;99.90;;;;;;5033669;28;20593;-70
2021/08/09 07:50:58;;;;;;;1.30;1.20;;;18.10;99.90;;;;;;5033619;28;20226;-70
2021/08/09 07:53:25;;;;;;;1.80;1.20;;;18.10;99.90;;;;;;5033820;28;20207;-70
2021/08/09 07:55:52;;;;;;;1.60;1.40;;;18.20;99.90;;;;;;5033278;28;20210;-70
2021/08/09 07:58:18;;;;;;;2.05;1.50;;;18.30;99.90;;;;;;5033462;28;20230;-70
2021/08/09 08:00:47;;;;;;;1.67;1.25;;;18.40;99.90;;;;;;5033421;28;20623;-70
2021/08/09 08:03:14;;;;;;;0.90;0.90;;;18.50;99.90;;;;;;5033207;28;20299;-70
2021/08/09 08:05:40;;;;;;;2.15;1.33;;;18.60;99.90;;;;;;5033348;28;20203;-70
2021/08/09 08:08:10;;;;;;;1.03;1.03;;;18.70;99.90;;;;;;5033511;28;20204;-70
2021/08/09 08:10:37;;;;;;;1.73;1.25;;;18.90;99.90;;;;;;5033451;28;20447;-70
2021/08/09 08:13:04;;;;;;;1.27;1.10;;;19.10;99.90;;;;;;5033419;28;20220;-70
2021/08/09 08:15:31;;;;;;;1.20;1.10;;;19.60;99.90;;;;;;5032828;28;20220;-71
2021/08/09 08:17:59;;;;;;;1.40;1.00;;;21.00;99.90;;;;;;5033251;28;20450;-70
2021/08/09 08:20:26;;;;;;;3.07;1.27;;;22.70;99.00;;;;;;5037521;28;20523;-70
2021/08/09 08:22:54;;;;;;;1.00;1.00;;;24.20;94.50;;;;;;5037362;28;20445;-70
2021/08/09 08:25:21;;;;;;;1.53;1.30;;;24.80;94.40;;;;;;5037163;28;20473;-70
2021/08/09 08:27:47;;;;;;;1.67;1.57;;;25.40;93.00;;;;;;5037244;28;20536;-70
2021/08/09 08:30:15;;;;;;;1.47;1.37;;;25.40;90.00;;;;;;5037213;28;20565;-70
2021/08/09 08:32:42;;;;;;;1.90;1.20;;;25.80;85.40;;;;;;5037167;28;20533;-70
2021/08/09 08:35:11;;;;;;;1.20;1.20;;;26.70;83.90;;;;;;5036938;28;20485;-71
2021/08/09 08:37:37;;;;;;;1.30;1.17;;;27.10;82.90;;;;;;5037034;28;20447;-70
2021/08/09 08:40:05;;;;;;;2.80;1.40;;;26.70;80.40;;;;;;5036993;28;20483;-70
2021/08/09 08:42:32;;;;;;;1.43;1.30;;;26.00;80.60;;;;;;5036975;28;20441;-70
2021/08/09 08:44:59;;;;;;;2.47;2.17;;;25.40;80.90;;;;;;5036579;28;20935;-70
2021/08/09 08:47:29;;;;;;;4.30;3.27;;;24.90;83.30;;;;;;5036892;28;20444;-70
2021/08/09 08:49:56;;;;;;;2.17;1.40;;;24.80;85.40;;;;;;5036827;28;20554;-70
2021/08/09 08:52:25;;;;;;;1.50;1.13;;;24.60;88.30;;;;;;5036727;28;20599;-70
2021/08/09 08:54:51;;;;;;;1.40;1.30;;;24.30;88.60;;;;;;5036598;28;20440;-70
2021/08/09 08:57:19;;;;;;;1.83;1.30;;;24.40;89.40;;;;;;5036723;28;20531;-70
2021/08/09 08:59:46;;;;;;;1.73;1.63;;;24.40;85.00;;;;;;5036274;28;20580;-70
2021/08/09 09:02:36;;;;;;;1.33;1.23;;;24.10;84.50;;;;;;5036473;28;20954;-70
2021/08/09 09:05:07;;;;;;;0.90;0.90;;;24.30;84.00;;;;;;5036339;28;20485;-70
2021/08/09 09:07:36;;;;;;;1.00;1.00;;;25.40;87.50;;;;;;5036696;28;20447;-71
2021/08/09 09:10:17;;;;;;;0.97;0.97;;;26.90;84.90;;;;;;5036455;28;20465;-71
2021/08/09 09:12:45;;;;;;;1.30;1.20;;;28.60;74.80;;;;;;5036329;28;20529;-71
2021/08/09 09:15:12;;;;;;;1.00;1.00;;;30.80;61.70;;;;;;5036189;28;20451;-71
2021/08/09 09:17:40;;;;;;;0.83;0.83;;;32.10;58.80;;;;;;5036246;28;20545;-71
2021/08/09 09:20:30;;;;;;;0.70;0.70;;;33.50;53.80;;;;;;5035908;28;20919;-71
2021/08/09 09:23:14;;;;;;;0.80;0.80;;;34.70;45.90;;;;;;5033605;28;20465;-71
2021/08/09 09:25:41;;;;;;;0.67;0.67;;;36.00;43.20;;;;;;5035992;28;20442;-69
2021/08/09 09:28:22;;;;;;;0.63;0.60;;;36.10;41.90;;;;;;5036277;28;20447;-69
2021/08/09 09:30:50;;;;;;;1.43;1.13;;;35.50;39.50;;;;;;5035169;28;20482;-68
2021/08/09 09:33:17;;;;;;;0.77;0.77;;;34.80;43.50;;;;;;5036048;28;20468;-69
2021/08/09 09:35:44;;;;;;;0.93;0.90;;;34.90;42.70;;;;;;5035589;28;21016;-69
2021/08/09 09:38:10;;;;;;;1.00;1.00;;;35.50;40.90;;;;;;5035847;28;20451;-69
2021/08/09 09:40:41;;;;;;;1.00;0.90;;;35.20;39.80;;;;;;5035840;28;20483;-69
2021/08/09 09:43:19;;;;;;;0.80;0.80;;;35.40;43.20;;;;;;5035674;28;20917;-69
2021/08/09 09:45:54;;;;;;;0.77;0.70;;;34.80;40.80;;;;;;5035741;28;20529;-69
2021/08/09 09:48:34;;;;;;;0.87;0.87;;;35.60;42.60;;;;;;5035702;28;20502;-69
2021/08/09 09:51:11;;;;;;;0.93;0.93;;;36.00;37.80;;;;;;5035522;28;20427;-69
2021/08/09 09:53:39;;;;;;;0.83;0.83;;;36.00;38.40;;;;;;5035663;28;20443;-69
2021/08/09 09:56:08;;;;;;;0.80;0.80;;;36.50;36.50;;;;;;5035476;28;20952;-69
2021/08/09 09:58:36;;;;;;;0.80;0.80;;;36.60;36.40;;;;;;5035225;28;20471;-69
2021/08/09 10:01:03;;;;;;;0.90;0.90;;;36.50;35.90;;;;;;5035187;28;20976;-69
2021/08/09 10:03:32;;;;;;;1.03;0.80;;;36.20;36.10;;;;;;5035450;28;20473;-69
2021/08/09 10:06:00;;;;;;;0.90;0.90;;;36.60;35.50;;;;;;5035258;28;20920;-69
2021/08/09 10:08:33;;;;;;;1.10;1.00;;;36.60;35.80;;;;;;5035112;28;20467;-69
2021/08/09 10:11:01;;;;;;;0.90;0.90;;;37.40;35.60;;;;;;5035506;28;20437;-69
2021/08/09 10:13:32;;;;;;;0.70;0.70;;;37.70;34.80;;;;;;5035480;28;20478;-69
2021/08/09 10:16:04;;;;;;;1.20;0.70;;;37.80;36.40;;;;;;5034816;28;20455;-70
2021/08/09 10:18:33;;;;;;;0.83;0.83;;;38.40;33.80;;;;;;5035253;28;20477;-69
2021/08/09 10:21:02;;;;;;;1.13;1.10;;;38.70;33.20;;;;;;5035063;28;20504;-69
2021/08/09 10:23:37;;;;;;;1.20;1.10;;;38.00;33.40;;;;;;5035057;28;20447;-69
2021/08/09 10:26:04;;;;;;;0.90;0.90;;;37.80;33.70;;;;;;5034787;28;20877;-69
2021/08/09 10:29:04;;;;;;;1.20;1.10;;;37.40;35.60;;;;;;5034888;28;20474;-69
2021/08/09 10:31:34;;;;;;;2.30;1.00;;;37.60;35.80;;;;;;5035019;28;20860;-69
2021/08/09 10:34:03;;;;;;;1.00;1.00;;;37.60;34.90;;;;;;5034827;28;20983;-69
2021/08/09 10:37:10;;;;;;;1.20;1.10;;;37.20;35.00;;;;;;5034560;28;21000;-69
2021/08/09 10:39:58;;;;;;;0.93;0.93;;;35.20;39.20;;;;;;5034749;28;20466;-69
2021/08/09 10:42:44;;;;;;;0.97;0.97;;;34.00;39.20;;;;;;5034566;28;20447;-69
2021/08/09 10:45:13;;;;;;;1.10;1.10;;;33.80;39.80;;;;;;5034556;28;20431;-69
2021/08/09 10:47:58;;;;;;;1.20;1.10;;;34.10;39.50;;;;;;5034656;28;20438;-69
2021/08/09 10:50:47;;;;;;;1.60;1.00;;;33.90;39.90;;;;;;5034719;28;20431;-69
2021/08/09 10:53:46;;;;;;;1.50;1.37;;;33.40;40.60;;;;;;5034765;28;20442;-69
2021/08/09 10:56:43;;;;;;;1.20;1.10;;;32.70;41.00;;;;;;5030567;28;20454;-69
2021/08/09 10:59:10;;;;;;;2.20;1.13;;;32.80;41.50;;;;;;5028723;28;20498;-69
2021/08/09 11:01:58;;;;;;;1.20;1.10;;;32.80;41.30;;;;;;5034340;28;20521;-69
2021/08/09 11:04:25;;;;;;;1.50;1.37;;;32.50;43.20;;;;;;5034406;28;20439;-68
2021/08/09 11:06:53;;;;;;;2.10;1.03;;;32.10;41.20;;;;;;5034194;28;20452;-68
2021/08/09 11:09:51;;;;;;;11.10;8.50;;;31.30;45.10;;;;;;5033939;28;20981;-68
2021/08/09 11:12:23;;;;;;;2.13;2.03;;;30.70;45.10;;;;;;4992785;28;20443;-68
2021/08/09 11:15:16;;;;;;;1.47;1.37;;;30.30;46.10;;;;;;5025803;28;20458;-68
2021/08/09 11:17:49;;;;;;;1.30;1.30;;;30.30;45.10;;;;;;5034119;28;20450;-70
2021/08/09 11:20:17;;;;;;;1.37;1.23;;;29.80;45.90;;;;;;5034001;28;20494;-71
2021/08/09 11:22:46;;;;;;;1.30;1.20;;;29.50;46.30;;;;;;5034000;28;20443;-71
2021/08/09 11:25:26;;;;;;;1.27;1.20;;;29.20;49.20;;;;;;5033788;28;20802;-71
2021/08/09 11:28:01;;;;;;;1.27;1.27;;;28.80;51.00;;;;;;5033988;28;20456;-70
2021/08/09 11:30:35;;;;;;;1.43;1.33;;;28.60;50.10;;;;;;5033948;28;20531;-71
2021/08/09 11:33:02;;;;;;;1.43;1.33;;;28.40;51.60;;;;;;5033877;28;20530;-70
2021/08/09 11:35:29;;;;;;;1.70;1.50;;;27.70;49.90;;;;;;5033356;28;20490;-71
2021/08/09 11:37:57;;;;;;;1.50;1.40;;;27.10;51.70;;;;;;5033778;28;20457;-70
2021/08/09 11:40:39;;;;;;;1.33;1.23;;;26.70;53.50;;;;;;5033950;28;20583;-70
2021/08/09 11:43:07;;;;;;;1.43;1.33;;;26.60;54.40;;;;;;5033861;28;20531;-70
2021/08/09 11:45:34;;;;;;;2.07;1.10;;;26.30;53.80;;;;;;5033486;28;20458;-70
2021/08/09 11:48:01;;;;;;;2.00;1.63;;;26.10;52.90;;;;;;5033789;28;20453;-70
2021/08/09 11:50:35;;;;;;;1.40;1.30;;;26.10;53.50;;;;;;5033759;28;20438;-70
2021/08/09 11:53:02;;;;;;;1.20;1.20;;;26.20;54.70;;;;;;5033331;28;20461;-71
2021/08/09 11:55:29;;;;;;;1.10;1.10;;;26.30;55.20;;;;;;5033232;28;20533;-70
2021/08/09 11:57:57;;;;;;;1.10;1.10;;;26.30;54.10;;;;;;5033562;28;20903;-71
2021/08/09 12:00:35;;;;;;;1.53;1.20;;;26.30;54.30;;;;;;5033474;28;20585;-71
2021/08/09 12:03:10;;;;;;;1.90;1.20;;;26.30;55.60;;;;;;5033567;28;20443;-70
2021/08/09 12:05:37;;;;;;;1.17;1.10;;;26.40;52.60;;;;;;5033317;28;20553;-70
2021/08/09 12:08:06;;;;;;;1.70;1.60;;;26.40;52.40;;;;;;5033374;28;20451;-70
2021/08/09 12:10:33;;;;;;;1.77;1.37;;;26.40;54.10;;;;;;5033510;28;20439;-71
2021/08/09 12:13:02;;;;;;;1.00;1.00;;;26.40;52.80;;;;;;5033363;28;20537;-71
2021/08/09 12:15:29;;;;;;;1.60;1.50;;;26.30;53.90;;;;;;5033171;28;20443;-71
2021/08/09 12:18:06;;;;;;;1.27;1.17;;;26.50;53.20;;;;;;5033271;28;20438;-71
2021/08/09 12:20:34;;;;;;;1.17;1.07;;;26.60;54.00;;;;;;5033687;28;20484;-71
2021/08/09 12:23:01;;;;;;;1.33;1.20;;;26.70;53.40;;;;;;5033286;28;20527;-70
2021/08/09 12:25:35;;;;;;;1.70;1.60;;;26.80;55.60;;;;;;5032889;28;20447;-70
2021/08/09 12:28:05;;;;;;;1.37;1.27;;;26.80;53.60;;;;;;5033184;28;20443;-71
2021/08/09 12:30:47;;;;;;;1.97;1.43;;;26.90;55.50;;;;;;5033630;28;20538;-70
2021/08/09 12:33:14;;;;;;;1.57;1.20;;;27.00;53.40;;;;;;5033147;28;20465;-70
2021/08/09 12:35:42;;;;;;;1.40;1.23;;;26.90;56.90;;;;;;5032902;28;20538;-70
2021/08/09 12:38:11;;;;;;;1.67;1.57;;;26.90;55.80;;;;;;5033147;28;20486;-70
2021/08/09 12:40:39;;;;;;;1.43;1.33;;;26.80;53.60;;;;;;5032733;28;20557;-70
2021/08/09 12:43:09;;;;;;;1.33;1.23;;;26.80;52.20;;;;;;5033121;28;20447;-70
2021/08/09 12:45:36;;;;;;;1.63;1.53;;;26.70;51.40;;;;;;5032941;28;20449;-70
2021/08/09 12:48:04;;;;;;;2.17;1.33;;;26.60;53.40;;;;;;5032901;28;20449;-70
2021/08/09 12:50:31;;;;;;;1.60;1.50;;;26.60;53.00;;;;;;5033240;28;20459;-70
2021/08/09 12:52:58;;;;;;;1.40;1.30;;;26.40;51.20;;;;;;5032931;28;20770;-70
2021/08/09 12:55:25;;;;;;;1.83;1.67;;;26.20;52.00;;;;;;5033046;28;20447;-71
2021/08/09 12:57:52;;;;;;;1.70;1.60;;;26.20;51.10;;;;;;5032909;28;20439;-70
2021/08/09 13:00:21;;;;;;;1.23;1.10;;;26.20;52.30;;;;;;5032919;28;20466;-70